sensor_id;sensor_type;location;lat;lon;timestamp;pressure;altitude;pressure_sealevel;temperature;humidity
11676;BME280;5894;42.768;23.404;2023-03-01T00:01:33;96044.34;;;6.18;100.00
11676;BME280;5894;42.768;23.404;2023-03-01T00:04:00;96156.47;;;7.08;100.00
11676;BME280;5894;42.768;23.404;2023-03-01T00:06:27;96155.97;;;7.11;100.00
11676;BME280;5894;42.768;23.404;2023-03-01T00:08:54;96147.81;;;7.17;100.00
11676;BME280;5894;42.768;23.404;2023-03-01T00:11:22;96162.75;;;7.17;100.00
11676;BME280;5894;42.768;23.404;2023-03-01T00:13:52;96150.75;;;7.06;100.00
11676;BME280;5894;42.768;23.404;2023-03-01T00:16:22;96161.47;;;6.99;100.00
11676;BME280;5894;42.768;23.404;2023-03-01T00:18:49;96164.09;;;6.89;100.00
11676;BME280;5894;42.768;23.404;2023-03-01T00:21:17;96163.84;;;6.70;100.00
11676;BME280;5894;42.768;23.404;2023-03-01T00:23:44;96157.78;;;6.64;100.00
11676;BME280;5894;42.768;23.404;2023-03-01T00:26:13;96160.16;;;6.56;100.00
11676;BME280;5894;42.768;23.404;2023-03-01T00:28:40;96130.53;;;6.30;100.00
11676;BME280;5894;42.768;23.404;2023-03-01T00:31:08;96139.16;;;6.36;100.00
11676;BME280;5894;42.768;23.404;2023-03-01T00:33:36;96150.97;;;6.48;100.00
11676;BME280;5894;42.768;23.404;2023-03-01T00:36:05;96147.31;;;6.44;100.00
11676;BME280;5894;42.768;23.404;2023-03-01T00:38:35;96121.34;;;6.28;100.00
11676;BME280;5894;42.768;23.404;2023-03-01T00:41:04;96142.88;;;6.60;100.00
11676;BME280;5894;42.768;23.404;2023-03-01T00:43:31;96136.06;;;6.69;100.00
11676;BME280;5894;42.768;23.404;2023-03-01T00:46:02;96073.44;;;6.42;100.00
11676;BME280;5894;42.768;23.404;2023-03-01T00:48:29;96127.13;;;6.90;100.00
11676;BME280;5894;42.768;23.404;2023-03-01T00:50:57;96127.41;;;6.94;100.00
11676;BME280;5894;42.768;23.404;2023-03-01T00:53:30;96124.25;;;7.02;100.00
11676;BME280;5894;42.768;23.404;2023-03-01T00:55:58;96121.38;;;7.04;100.00
11676;BME280;5894;42.768;23.404;2023-03-01T00:58:24;96120.59;;;6.93;100.00
11676;BME280;5894;42.768;23.404;2023-03-01T01:00:51;96126.88;;;6.97;100.00
11676;BME280;5894;42.768;23.404;2023-03-01T01:03:19;96120.56;;;6.98;100.00
11676;BME280;5894;42.768;23.404;2023-03-01T01:05:45;96126.84;;;7.07;100.00
11676;BME280;5894;42.768;23.404;2023-03-01T01:08:13;96121.59;;;7.07;100.00
11676;BME280;5894;42.768;23.404;2023-03-01T01:10:43;96112.19;;;7.01;100.00
11676;BME280;5894;42.768;23.404;2023-03-01T01:13:10;96111.41;;;7.00;100.00
11676;BME280;5894;42.768;23.404;2023-03-01T01:15:36;96129.72;;;7.21;100.00
11676;BME280;5894;42.768;23.404;2023-03-01T01:18:03;96132.31;;;7.31;100.00
11676;BME280;5894;42.768;23.404;2023-03-01T01:20:30;96138.34;;;7.31;100.00
11676;BME280;5894;42.768;23.404;2023-03-01T01:22:58;96094.88;;;7.00;100.00
11676;BME280;5894;42.768;23.404;2023-03-01T01:25:26;96140.19;;;7.31;100.00
11676;BME280;5894;42.768;23.404;2023-03-01T01:27:53;96101.69;;;7.01;100.00
11676;BME280;5894;42.768;23.404;2023-03-01T01:30:20;96139.16;;;7.17;100.00
11676;BME280;5894;42.768;23.404;2023-03-01T01:32:47;96135.53;;;7.03;100.00
11676;BME280;5894;42.768;23.404;2023-03-01T01:35:14;96134.75;;;6.92;100.00
11676;BME280;5894;42.768;23.404;2023-03-01T01:37:40;96090.97;;;6.37;100.00
11676;BME280;5894;42.768;23.404;2023-03-01T01:40:10;96147.31;;;6.64;100.00
11676;BME280;5894;42.768;23.404;2023-03-01T01:42:38;96148.91;;;6.60;100.00
11676;BME280;5894;42.768;23.404;2023-03-01T01:45:31;96144.69;;;6.49;100.00
11676;BME280;5894;42.768;23.404;2023-03-01T01:48:01;96151.50;;;6.45;100.00
11676;BME280;5894;42.768;23.404;2023-03-01T01:50:29;96110.34;;;6.10;100.00
11676;BME280;5894;42.768;23.404;2023-03-01T01:53:05;96155.16;;;6.39;100.00
11676;BME280;5894;42.768;23.404;2023-03-01T01:55:34;96097.72;;;5.92;100.00
11676;BME280;5894;42.768;23.404;2023-03-01T01:58:07;96150.97;;;6.33;100.00
11676;BME280;5894;42.768;23.404;2023-03-01T02:00:36;96145.47;;;6.30;100.00
11676;BME280;5894;42.768;23.404;2023-03-01T02:03:08;96145.44;;;6.24;100.00
11676;BME280;5894;42.768;23.404;2023-03-01T02:05:41;96152.25;;;6.20;100.00
11676;BME280;5894;42.768;23.404;2023-03-01T02:08:11;96123.41;;;6.00;100.00
11676;BME280;5894;42.768;23.404;2023-03-01T02:10:40;96121.56;;;6.06;100.00
11676;BME280;5894;42.768;23.404;2023-03-01T02:13:11;96115.28;;;6.02;100.00
11676;BME280;5894;42.768;23.404;2023-03-01T02:15:39;96135.72;;;6.15;100.00
11676;BME280;5894;42.768;23.404;2023-03-01T02:18:07;96124.72;;;6.13;100.00
11676;BME280;5894;42.768;23.404;2023-03-01T02:20:43;96097.69;;;5.87;100.00
11676;BME280;5894;42.768;23.404;2023-03-01T02:23:12;96104.53;;;6.03;100.00
11676;BME280;5894;42.768;23.404;2023-03-01T02:25:46;96119.22;;;6.09;100.00
11676;BME280;5894;42.768;23.404;2023-03-01T02:28:29;96132.84;;;6.06;100.00
11676;BME280;5894;42.768;23.404;2023-03-01T02:30:56;96125.50;;;6.08;100.00
11676;BME280;5894;42.768;23.404;2023-03-01T02:33:41;96100.25;;;5.82;100.00
11676;BME280;5894;42.768;23.404;2023-03-01T02:36:14;96087.44;;;5.70;100.00
11676;BME280;5894;42.768;23.404;2023-03-01T02:38:41;96126.56;;;6.07;100.00
11676;BME280;5894;42.768;23.404;2023-03-01T02:41:10;96112.16;;;6.00;100.00
11676;BME280;5894;42.768;23.404;2023-03-01T02:43:39;96140.69;;;6.01;100.00
11676;BME280;5894;42.768;23.404;2023-03-01T02:46:14;96121.81;;;5.89;100.00
11676;BME280;5894;42.768;23.404;2023-03-01T02:48:42;96126.78;;;5.96;100.00
11676;BME280;5894;42.768;23.404;2023-03-01T02:51:17;96100.22;;;5.72;100.00
11676;BME280;5894;42.768;23.404;2023-03-01T02:53:56;96121.56;;;5.91;100.00
11676;BME280;5894;42.768;23.404;2023-03-01T02:56:26;96117.53;;;5.83;100.00
11676;BME280;5894;42.768;23.404;2023-03-01T02:58:54;96117.81;;;5.81;100.00
11676;BME280;5894;42.768;23.404;2023-03-01T03:01:27;96122.28;;;5.86;100.00
11676;BME280;5894;42.768;23.404;2023-03-01T03:04:07;96116.75;;;5.82;100.00
11676;BME280;5894;42.768;23.404;2023-03-01T03:06:35;96089.97;;;5.55;100.00
11676;BME280;5894;42.768;23.404;2023-03-01T03:09:03;96112.56;;;5.76;100.00
11676;BME280;5894;42.768;23.404;2023-03-01T03:11:30;96121.75;;;5.79;100.00
11676;BME280;5894;42.768;23.404;2023-03-01T03:13:59;96075.31;;;5.54;100.00
11676;BME280;5894;42.768;23.404;2023-03-01T03:16:26;96108.13;;;5.77;100.00
11676;BME280;5894;42.768;23.404;2023-03-01T03:18:52;96101.06;;;5.77;100.00
11676;BME280;5894;42.768;23.404;2023-03-01T03:21:19;96110.19;;;5.75;100.00
11676;BME280;5894;42.768;23.404;2023-03-01T03:23:46;96133.88;;;6.00;100.00
11676;BME280;5894;42.768;23.404;2023-03-01T03:26:13;96139.38;;;6.04;100.00
11676;BME280;5894;42.768;23.404;2023-03-01T03:28:40;96143.84;;;6.13;100.00
11676;BME280;5894;42.768;23.404;2023-03-01T03:31:08;96146.19;;;6.15;100.00
11676;BME280;5894;42.768;23.404;2023-03-01T03:33:35;96146.75;;;6.12;100.00
11676;BME280;5894;42.768;23.404;2023-03-01T03:36:02;96139.13;;;6.15;100.00
11676;BME280;5894;42.768;23.404;2023-03-01T03:38:29;96150.19;;;6.33;100.00
11676;BME280;5894;42.768;23.404;2023-03-01T03:41:00;96147.31;;;6.39;100.00
11676;BME280;5894;42.768;23.404;2023-03-01T03:43:28;96119.00;;;6.21;100.00
11676;BME280;5894;42.768;23.404;2023-03-01T03:45:56;96151.47;;;6.35;100.00
11676;BME280;5894;42.768;23.404;2023-03-01T03:48:25;96149.66;;;6.31;100.00
11676;BME280;5894;42.768;23.404;2023-03-01T03:50:53;96152.00;;;6.27;100.00
11676;BME280;5894;42.768;23.404;2023-03-01T03:53:21;96156.97;;;6.18;100.00
11676;BME280;5894;42.768;23.404;2023-03-01T03:55:49;96091.09;;;5.74;100.00
11676;BME280;5894;42.768;23.404;2023-03-01T03:58:51;96153.81;;;6.11;100.00
11676;BME280;5894;42.768;23.404;2023-03-01T04:04:05;96160.59;;;6.07;100.00
11676;BME280;5894;42.768;23.404;2023-03-01T04:06:33;96157.19;;;6.07;100.00
11676;BME280;5894;42.768;23.404;2023-03-01T04:09:00;96157.94;;;6.02;100.00
11676;BME280;5894;42.768;23.404;2023-03-01T04:11:28;96103.94;;;5.71;100.00
11676;BME280;5894;42.768;23.404;2023-03-01T04:13:57;96161.34;;;6.03;100.00
11676;BME280;5894;42.768;23.404;2023-03-01T04:16:25;96161.34;;;6.03;100.00
11676;BME280;5894;42.768;23.404;2023-03-01T04:18:52;96152.97;;;5.91;100.00
11676;BME280;5894;42.768;23.404;2023-03-01T04:21:21;96158.38;;;5.84;100.00
11676;BME280;5894;42.768;23.404;2023-03-01T04:23:48;96152.06;;;5.75;100.00
11676;BME280;5894;42.768;23.404;2023-03-01T04:26:18;96156.97;;;5.61;100.00
11676;BME280;5894;42.768;23.404;2023-03-01T04:28:45;96110.44;;;5.11;100.00
11676;BME280;5894;42.768;23.404;2023-03-01T04:31:17;96091.25;;;4.95;100.00
11676;BME280;5894;42.768;23.404;2023-03-01T04:33:47;96140.03;;;5.16;100.00
11676;BME280;5894;42.768;23.404;2023-03-01T04:36:16;96144.47;;;5.16;100.00
11676;BME280;5894;42.768;23.404;2023-03-01T04:38:44;96141.00;;;5.10;100.00
11676;BME280;5894;42.768;23.404;2023-03-01T04:41:14;96150.13;;;5.03;100.00
11676;BME280;5894;42.768;23.404;2023-03-01T04:43:41;96122.13;;;4.98;100.00
11676;BME280;5894;42.768;23.404;2023-03-01T04:46:11;96140.44;;;5.03;100.00
11676;BME280;5894;42.768;23.404;2023-03-01T04:48:40;96121.31;;;4.93;100.00
11676;BME280;5894;42.768;23.404;2023-03-01T04:51:07;96095.63;;;4.85;100.00
11676;BME280;5894;42.768;23.404;2023-03-01T04:53:35;96091.47;;;4.89;100.00
11676;BME280;5894;42.768;23.404;2023-03-01T04:56:04;96131.03;;;5.02;100.00
11676;BME280;5894;42.768;23.404;2023-03-01T04:58:32;96128.41;;;4.97;100.00
11676;BME280;5894;42.768;23.404;2023-03-01T05:00:58;96131.31;;;5.06;100.00
11676;BME280;5894;42.768;23.404;2023-03-01T05:03:25;96121.38;;;5.03;100.00
11676;BME280;5894;42.768;23.404;2023-03-01T05:05:53;96127.13;;;5.05;100.00
11676;BME280;5894;42.768;23.404;2023-03-01T05:08:20;96138.75;;;5.24;100.00
11676;BME280;5894;42.768;23.404;2023-03-01T05:10:49;96129.63;;;5.27;100.00
11676;BME280;5894;42.768;23.404;2023-03-01T05:13:18;96126.47;;;5.25;100.00
11676;BME280;5894;42.768;23.404;2023-03-01T05:15:47;96133.28;;;5.26;100.00
11676;BME280;5894;42.768;23.404;2023-03-01T05:18:14;96143.78;;;5.36;100.00
11676;BME280;5894;42.768;23.404;2023-03-01T05:20:41;96147.19;;;5.36;100.00
11676;BME280;5894;42.768;23.404;2023-03-01T05:23:09;96140.63;;;5.34;100.00
11676;BME280;5894;42.768;23.404;2023-03-01T05:25:36;96122.28;;;5.24;100.00
11676;BME280;5894;42.768;23.404;2023-03-01T05:28:06;96143.53;;;5.42;100.00
11676;BME280;5894;42.768;23.404;2023-03-01T05:30:36;96143.28;;;5.44;100.00
11676;BME280;5894;42.768;23.404;2023-03-01T05:33:04;96117.34;;;5.32;100.00
11676;BME280;5894;42.768;23.404;2023-03-01T05:35:36;96139.94;;;5.53;100.00
11676;BME280;5894;42.768;23.404;2023-03-01T05:38:02;96122.91;;;5.46;100.00
11676;BME280;5894;42.768;23.404;2023-03-01T05:40:29;96021.94;;;4.83;100.00
11676;BME280;5894;42.768;23.404;2023-03-01T05:42:56;96147.00;;;5.53;100.00
11676;BME280;5894;42.768;23.404;2023-03-01T05:45:24;96160.09;;;5.53;100.00
11676;BME280;5894;42.768;23.404;2023-03-01T05:47:54;96138.84;;;5.44;100.00
11676;BME280;5894;42.768;23.404;2023-03-01T05:50:22;96163.50;;;5.53;100.00
11676;BME280;5894;42.768;23.404;2023-03-01T05:52:52;96155.03;;;5.41;100.00
11676;BME280;5894;42.768;23.404;2023-03-01T05:55:23;96164.06;;;5.66;100.00
11676;BME280;5894;42.768;23.404;2023-03-01T05:57:49;96159.38;;;5.68;100.00
11676;BME280;5894;42.768;23.404;2023-03-01T06:00:18;96160.47;;;5.82;100.00
11676;BME280;5894;42.768;23.404;2023-03-01T06:02:47;96135.31;;;5.71;100.00
11676;BME280;5894;42.768;23.404;2023-03-01T06:05:15;96165.03;;;6.02;100.00
11676;BME280;5894;42.768;23.404;2023-03-01T06:07:42;96135.09;;;5.82;100.00
11676;BME280;5894;42.768;23.404;2023-03-01T06:10:10;96188.63;;;6.17;100.00
11676;BME280;5894;42.768;23.404;2023-03-01T06:12:38;96195.44;;;6.13;100.00
11676;BME280;5894;42.768;23.404;2023-03-01T06:15:08;96180.25;;;6.10;100.00
11676;BME280;5894;42.768;23.404;2023-03-01T06:17:36;96196.50;;;6.17;100.00
11676;BME280;5894;42.768;23.404;2023-03-01T06:20:06;96149.75;;;5.83;100.00
11676;BME280;5894;42.768;23.404;2023-03-01T06:22:34;96192.31;;;6.11;100.00
11676;BME280;5894;42.768;23.404;2023-03-01T06:25:01;96203.06;;;6.19;100.00
11676;BME280;5894;42.768;23.404;2023-03-01T06:27:28;96199.94;;;6.28;100.00
11676;BME280;5894;42.768;23.404;2023-03-01T06:29:55;96201.50;;;6.34;100.00
11676;BME280;5894;42.768;23.404;2023-03-01T06:32:22;96191.34;;;6.52;100.00
11676;BME280;5894;42.768;23.404;2023-03-01T06:34:49;96195.81;;;6.57;100.00
11676;BME280;5894;42.768;23.404;2023-03-01T06:37:16;96197.06;;;6.34;100.00
11676;BME280;5894;42.768;23.404;2023-03-01T06:39:44;96190.56;;;6.62;100.00
11676;BME280;5894;42.768;23.404;2023-03-01T06:42:11;96188.19;;;6.66;100.00
11676;BME280;5894;42.768;23.404;2023-03-01T06:44:37;96192.16;;;6.68;100.00
11676;BME280;5894;42.768;23.404;2023-03-01T06:47:04;96187.97;;;6.62;100.00
11676;BME280;5894;42.768;23.404;2023-03-01T06:49:31;96158.56;;;6.45;100.00
11676;BME280;5894;42.768;23.404;2023-03-01T06:51:58;96182.19;;;6.70;100.00
11676;BME280;5894;42.768;23.404;2023-03-01T06:54:25;96191.38;;;6.88;100.00
11676;BME280;5894;42.768;23.404;2023-03-01T06:56:53;96192.69;;;6.85;100.00
11676;BME280;5894;42.768;23.404;2023-03-01T06:59:20;96190.59;;;6.82;100.00
11676;BME280;5894;42.768;23.404;2023-03-01T07:01:47;96174.84;;;6.77;100.00
11676;BME280;5894;42.768;23.404;2023-03-01T07:04:13;96176.16;;;6.80;100.00
11676;BME280;5894;42.768;23.404;2023-03-01T07:06:40;96187.19;;;6.92;100.00
11676;BME280;5894;42.768;23.404;2023-03-01T07:09:07;96194.78;;;6.93;100.00
11676;BME280;5894;42.768;23.404;2023-03-01T07:11:34;96196.09;;;7.01;100.00
11676;BME280;5894;42.768;23.404;2023-03-01T07:14:02;96142.88;;;6.60;100.00
11676;BME280;5894;42.768;23.404;2023-03-01T07:16:29;96193.72;;;6.89;100.00
11676;BME280;5894;42.768;23.404;2023-03-01T07:18:56;96187.97;;;6.92;100.00
11676;BME280;5894;42.768;23.404;2023-03-01T07:21:22;96198.97;;;6.99;100.00
11676;BME280;5894;42.768;23.404;2023-03-01T07:23:49;96169.09;;;6.90;100.00
11676;BME280;5894;42.768;23.404;2023-03-01T07:26:16;96180.63;;;6.94;100.00
11676;BME280;5894;42.768;23.404;2023-03-01T07:28:43;96191.91;;;7.00;100.00
11676;BME280;5894;42.768;23.404;2023-03-01T07:31:11;96159.38;;;6.96;100.00
11676;BME280;5894;42.768;23.404;2023-03-01T07:33:38;96189.03;;;7.02;100.00
11676;BME280;5894;42.768;23.404;2023-03-01T07:36:05;96163.06;;;6.80;100.00
11676;BME280;5894;42.768;23.404;2023-03-01T07:38:32;96168.81;;;6.77;100.00
11676;BME280;5894;42.768;23.404;2023-03-01T07:41:00;96133.97;;;6.61;100.00
11676;BME280;5894;42.768;23.404;2023-03-01T07:43:28;96136.06;;;6.59;100.00
11676;BME280;5894;42.768;23.404;2023-03-01T07:45:58;96181.16;;;6.81;100.00
11676;BME280;5894;42.768;23.404;2023-03-01T07:48:26;96179.06;;;6.83;100.00
11676;BME280;5894;42.768;23.404;2023-03-01T07:50:53;96181.44;;;6.95;100.00
11676;BME280;5894;42.768;23.404;2023-03-01T07:53:20;96123.47;;;6.61;100.00
11676;BME280;5894;42.768;23.404;2023-03-01T07:55:47;96075.25;;;6.26;100.00
11676;BME280;5894;42.768;23.404;2023-03-01T07:58:13;96171.72;;;7.00;100.00
11676;BME280;5894;42.768;23.404;2023-03-01T08:00:40;96166.22;;;7.02;100.00
11676;BME280;5894;42.768;23.404;2023-03-01T08:03:07;96171.44;;;7.12;100.00
11676;BME280;5894;42.768;23.404;2023-03-01T08:05:35;96156.22;;;7.09;100.00
11676;BME280;5894;42.768;23.404;2023-03-01T08:08:02;96102.00;;;6.84;100.00
11676;BME280;5894;42.768;23.404;2023-03-01T08:10:30;96122.94;;;6.99;100.00
11676;BME280;5894;42.768;23.404;2023-03-01T08:12:57;96153.34;;;7.16;100.00
11676;BME280;5894;42.768;23.404;2023-03-01T08:15:24;96165.63;;;7.30;100.00
11676;BME280;5894;42.768;23.404;2023-03-01T08:17:55;96165.38;;;7.32;100.00
11676;BME280;5894;42.768;23.404;2023-03-01T08:20:26;96103.00;;;7.04;100.00
11676;BME280;5894;42.768;23.404;2023-03-01T08:22:54;96155.13;;;7.41;100.00
11676;BME280;5894;42.768;23.404;2023-03-01T08:25:21;96156.94;;;7.50;100.00
11676;BME280;5894;42.768;23.404;2023-03-01T08:27:48;96159.03;;;7.53;100.00
11676;BME280;5894;42.768;23.404;2023-03-01T08:30:15;96158.47;;;7.61;100.00
11676;BME280;5894;42.768;23.404;2023-03-01T08:32:42;96151.69;;;7.55;100.00
11676;BME280;5894;42.768;23.404;2023-03-01T08:35:08;96167.44;;;7.50;100.00
11676;BME280;5894;42.768;23.404;2023-03-01T08:37:35;96122.66;;;7.26;100.00
11676;BME280;5894;42.768;23.404;2023-03-01T08:40:05;96161.91;;;7.52;100.00
11676;BME280;5894;42.768;23.404;2023-03-01T08:42:35;96161.09;;;7.61;100.00
11676;BME280;5894;42.768;23.404;2023-03-01T08:45:02;96170.56;;;7.62;100.00
11676;BME280;5894;42.768;23.404;2023-03-01T08:47:29;96133.31;;;7.50;100.00
11676;BME280;5894;42.768;23.404;2023-03-01T08:49:56;96166.84;;;7.73;100.00
11676;BME280;5894;42.768;23.404;2023-03-01T08:52:23;96166.84;;;7.73;100.00
11676;BME280;5894;42.768;23.404;2023-03-01T08:54:50;96160.06;;;7.67;100.00
11676;BME280;5894;42.768;23.404;2023-03-01T08:57:18;96111.31;;;7.41;100.00
11676;BME280;5894;42.768;23.404;2023-03-01T08:59:45;96145.09;;;7.63;100.00
11676;BME280;5894;42.768;23.404;2023-03-01T09:02:13;96117.06;;;7.38;100.00
11676;BME280;5894;42.768;23.404;2023-03-01T09:04:40;96171.56;;;7.77;100.00
11676;BME280;5894;42.768;23.404;2023-03-01T09:07:08;96177.31;;;7.84;100.00
11676;BME280;5894;42.768;23.404;2023-03-01T09:09:36;96163.88;;;7.90;100.00
11676;BME280;5894;42.768;23.404;2023-03-01T09:12:03;96149.72;;;7.86;100.00
11676;BME280;5894;42.768;23.404;2023-03-01T09:14:32;96153.97;;;7.77;100.00
11676;BME280;5894;42.768;23.404;2023-03-01T09:16:59;96148.16;;;7.85;100.00
11676;BME280;5894;42.768;23.404;2023-03-01T09:19:28;96146.81;;;7.98;100.00
11676;BME280;5894;42.768;23.404;2023-03-01T09:21:55;96156.78;;;7.96;100.00
11676;BME280;5894;42.768;23.404;2023-03-01T09:24:24;96134.53;;;7.78;100.00
11676;BME280;5894;42.768;23.404;2023-03-01T09:26:53;96167.56;;;7.94;100.00
11676;BME280;5894;42.768;23.404;2023-03-01T09:29:20;96172.03;;;7.94;100.00
11676;BME280;5894;42.768;23.404;2023-03-01T09:31:51;96161.81;;;7.87;100.00
11676;BME280;5894;42.768;23.404;2023-03-01T09:34:20;96154.00;;;7.67;100.00
11676;BME280;5894;42.768;23.404;2023-03-01T09:36:49;96136.38;;;7.78;100.00
11676;BME280;5894;42.768;23.404;2023-03-01T09:39:16;96152.78;;;8.08;100.00
11676;BME280;5894;42.768;23.404;2023-03-01T09:41:47;96152.28;;;8.06;100.00
11676;BME280;5894;42.768;23.404;2023-03-01T09:44:26;96108.25;;;7.83;100.00
11676;BME280;5894;42.768;23.404;2023-03-01T09:46:57;96156.22;;;8.04;100.00
11676;BME280;5894;42.768;23.404;2023-03-01T09:49:26;96108.28;;;7.73;100.00
11676;BME280;5894;42.768;23.404;2023-03-01T09:51:57;96142.81;;;8.05;100.00
11676;BME280;5894;42.768;23.404;2023-03-01T09:54:25;96139.06;;;8.17;100.00
11676;BME280;5894;42.768;23.404;2023-03-01T09:57:00;96150.34;;;8.22;100.00
11676;BME280;5894;42.768;23.404;2023-03-01T09:59:39;96131.97;;;8.17;100.00
11676;BME280;5894;42.768;23.404;2023-03-01T10:02:21;96078.28;;;7.89;100.00
11676;BME280;5894;42.768;23.404;2023-03-01T10:04:51;96124.06;;;8.22;100.00
11676;BME280;5894;42.768;23.404;2023-03-01T10:07:31;96118.03;;;8.22;100.00
11676;BME280;5894;42.768;23.404;2023-03-01T10:09:59;96122.25;;;8.18;100.00
11676;BME280;5894;42.768;23.404;2023-03-01T10:12:35;96133.50;;;8.23;100.00
11676;BME280;5894;42.768;23.404;2023-03-01T10:15:06;96132.44;;;8.29;100.00
11676;BME280;5894;42.768;23.404;2023-03-01T10:17:39;96091.81;;;8.11;100.00
11676;BME280;5894;42.768;23.404;2023-03-01T10:20:20;96134.28;;;8.34;100.00
11676;BME280;5894;42.768;23.404;2023-03-01T10:22:48;96135.06;;;8.34;100.00
11676;BME280;5894;42.768;23.404;2023-03-01T10:25:30;96082.59;;;8.19;100.00
11676;BME280;5894;42.768;23.404;2023-03-01T10:28:06;96115.22;;;8.52;100.00
11676;BME280;5894;42.768;23.404;2023-03-01T10:30:38;96112.03;;;8.60;100.00
11676;BME280;5894;42.768;23.404;2023-03-01T10:33:14;96111.69;;;8.67;100.00
11676;BME280;5894;42.768;23.404;2023-03-01T10:35:43;96098.56;;;8.67;100.00
11676;BME280;5894;42.768;23.404;2023-03-01T10:38:11;96086.03;;;8.54;100.00
11676;BME280;5894;42.768;23.404;2023-03-01T10:40:51;96055.88;;;8.46;100.00
11676;BME280;5894;42.768;23.404;2023-03-01T10:43:19;96096.06;;;8.80;100.00
11676;BME280;5894;42.768;23.404;2023-03-01T10:45:47;96098.66;;;8.86;100.00
11676;BME280;5894;42.768;23.404;2023-03-01T10:48:17;96000.53;;;8.27;100.00
11676;BME280;5894;42.768;23.404;2023-03-01T10:50:46;96044.91;;;8.68;100.00
11676;BME280;5894;42.768;23.404;2023-03-01T10:53:23;96076.41;;;9.02;100.00
11676;BME280;5894;42.768;23.404;2023-03-01T10:56:00;96079.06;;;9.02;100.00
11676;BME280;5894;42.768;23.404;2023-03-01T10:58:28;96080.31;;;9.04;100.00
11676;BME280;5894;42.768;23.404;2023-03-01T11:00:57;96041.91;;;8.79;100.00
11676;BME280;5894;42.768;23.404;2023-03-01T11:03:27;96072.13;;;9.11;100.00
11676;BME280;5894;42.768;23.404;2023-03-01T11:06:00;96091.81;;;9.13;100.00
11676;BME280;5894;42.768;23.404;2023-03-01T11:08:39;96080.66;;;8.98;100.00
11676;BME280;5894;42.768;23.404;2023-03-01T11:11:22;96081.94;;;9.00;100.00
11676;BME280;5894;42.768;23.404;2023-03-01T11:13:56;96068.81;;;8.71;100.00
11676;BME280;5894;42.768;23.404;2023-03-01T11:16:26;96032.94;;;8.52;100.00
11676;BME280;5894;42.768;23.404;2023-03-01T11:19:01;96025.91;;;8.47;100.00
11676;BME280;5894;42.768;23.404;2023-03-01T11:21:32;96084.09;;;8.93;100.00
11676;BME280;5894;42.768;23.404;2023-03-01T11:24:01;96075.59;;;8.77;100.00
11676;BME280;5894;42.768;23.404;2023-03-01T11:26:31;96094.78;;;8.78;100.00
11676;BME280;5894;42.768;23.404;2023-03-01T11:29:06;96081.19;;;8.66;100.00
11676;BME280;5894;42.768;23.404;2023-03-01T11:31:34;96090.84;;;8.75;100.00
11676;BME280;5894;42.768;23.404;2023-03-01T11:34:09;96091.31;;;8.82;100.00
11676;BME280;5894;42.768;23.404;2023-03-01T11:36:42;96050.59;;;8.51;100.00
11676;BME280;5894;42.768;23.404;2023-03-01T11:39:18;96082.78;;;8.67;100.00
11676;BME280;5894;42.768;23.404;2023-03-01T11:41:56;96058.59;;;8.65;100.00
11676;BME280;5894;42.768;23.404;2023-03-01T11:44:28;96070.84;;;8.79;100.00
11676;BME280;5894;42.768;23.404;2023-03-01T11:47:08;96060.88;;;8.76;100.00
11676;BME280;5894;42.768;23.404;2023-03-01T11:50:10;96061.78;;;8.91;100.00
11676;BME280;5894;42.768;23.404;2023-03-01T11:52:52;96065.69;;;8.93;100.00
11676;BME280;5894;42.768;23.404;2023-03-01T11:55:39;96065.16;;;8.96;100.00
11676;BME280;5894;42.768;23.404;2023-03-01T11:58:29;96014.13;;;8.68;100.00
11676;BME280;5894;42.768;23.404;2023-03-01T12:01:12;96027.97;;;8.79;100.00
11676;BME280;5894;42.768;23.404;2023-03-01T12:04:10;96049.97;;;8.88;100.00
11676;BME280;5894;42.768;23.404;2023-03-01T12:06:51;96028.09;;;8.64;100.00
11676;BME280;5894;42.768;23.404;2023-03-01T12:09:36;96056.25;;;8.92;100.00
11676;BME280;5894;42.768;23.404;2023-03-01T12:12:25;96045.09;;;8.76;100.00
11676;BME280;5894;42.768;23.404;2023-03-01T12:15:21;96057.03;;;8.93;100.00
11676;BME280;5894;42.768;23.404;2023-03-01T12:18:04;96003.47;;;8.55;100.00
11676;BME280;5894;42.768;23.404;2023-03-01T12:20:41;96057.69;;;8.79;100.00
11676;BME280;5894;42.768;23.404;2023-03-01T12:23:43;96045.97;;;8.67;100.00
11676;BME280;5894;42.768;23.404;2023-03-01T12:26:20;96043.25;;;8.77;100.00
11676;BME280;5894;42.768;23.404;2023-03-01T12:29:06;96039.78;;;8.81;100.00
11676;BME280;5894;42.768;23.404;2023-03-01T12:32:06;96038.50;;;8.79;100.00
11676;BME280;5894;42.768;23.404;2023-03-01T12:35:16;96030.38;;;8.75;100.00
11676;BME280;5894;42.768;23.404;2023-03-01T12:37:54;96027.38;;;8.87;100.00
11676;BME280;5894;42.768;23.404;2023-03-01T12:40:33;96015.03;;;8.82;100.00
11676;BME280;5894;42.768;23.404;2023-03-01T12:43:10;95988.94;;;8.62;100.00
11676;BME280;5894;42.768;23.404;2023-03-01T12:45:50;95987.25;;;8.48;100.00
11676;BME280;5894;42.768;23.404;2023-03-01T12:48:39;96007.75;;;8.51;100.00
11676;BME280;5894;42.768;23.404;2023-03-01T12:51:10;96016.63;;;8.55;100.00
11676;BME280;5894;42.768;23.404;2023-03-01T12:53:40;96018.09;;;8.66;100.00
11676;BME280;5894;42.768;23.404;2023-03-01T12:56:11;96015.09;;;8.77;100.00
11676;BME280;5894;42.768;23.404;2023-03-01T12:58:42;96025.63;;;8.77;100.00
11676;BME280;5894;42.768;23.404;2023-03-01T13:01:22;96019.91;;;8.70;100.00
11676;BME280;5894;42.768;23.404;2023-03-01T13:04:06;96011.75;;;8.72;100.00
11676;BME280;5894;42.768;23.404;2023-03-01T13:06:41;96007.66;;;8.61;100.00
11676;BME280;5894;42.768;23.404;2023-03-01T13:09:17;96014.03;;;8.78;100.00
11676;BME280;5894;42.768;23.404;2023-03-01T13:11:47;96013.94;;;8.89;100.00
11676;BME280;5894;42.768;23.404;2023-03-01T13:14:36;96018.13;;;8.90;100.00
11676;BME280;5894;42.768;23.404;2023-03-01T13:17:03;95995.88;;;8.82;100.00
11676;BME280;5894;42.768;23.404;2023-03-01T13:19:29;96018.81;;;9.00;100.00
11676;BME280;5894;42.768;23.404;2023-03-01T13:21:58;96010.69;;;8.97;100.00